sensor_id;sensor_type;location;lat;lon;timestamp;P1;durP1;ratioP1;P2;durP2;ratioP2
83649;SDS011;73612;50.948;6.956;2023-11-19T00:02:23;2.80;;;2.50;;
83649;SDS011;73612;50.948;6.956;2023-11-19T00:04:50;3.47;;;2.70;;
83649;SDS011;73612;50.948;6.956;2023-11-19T00:07:17;2.77;;;2.37;;
83649;SDS011;73612;50.948;6.956;2023-11-19T00:09:43;2.80;;;2.40;;
83649;SDS011;73612;50.948;6.956;2023-11-19T00:12:10;2.77;;;2.47;;
83649;SDS011;73612;50.948;6.956;2023-11-19T00:14:36;3.90;;;2.37;;
83649;SDS011;73612;50.948;6.956;2023-11-19T00:17:03;3.97;;;2.90;;
83649;SDS011;73612;50.948;6.956;2023-11-19T00:19:30;4.40;;;2.20;;
83649;SDS011;73612;50.948;6.956;2023-11-19T00:21:56;2.30;;;2.00;;
83649;SDS011;73612;50.948;6.956;2023-11-19T00:24:23;3.00;;;2.20;;
83649;SDS011;73612;50.948;6.956;2023-11-19T00:26:49;1.90;;;1.80;;
83649;SDS011;73612;50.948;6.956;2023-11-19T00:29:16;3.53;;;2.10;;
83649;SDS011;73612;50.948;6.956;2023-11-19T00:31:43;2.60;;;1.90;;
83649;SDS011;73612;50.948;6.956;2023-11-19T00:34:09;2.40;;;1.90;;
83649;SDS011;73612;50.948;6.956;2023-11-19T00:36:36;2.27;;;2.00;;
83649;SDS011;73612;50.948;6.956;2023-11-19T00:39:02;2.80;;;2.37;;
83649;SDS011;73612;50.948;6.956;2023-11-19T00:41:29;2.63;;;2.00;;
83649;SDS011;73612;50.948;6.956;2023-11-19T00:43:56;3.03;;;1.80;;
83649;SDS011;73612;50.948;6.956;2023-11-19T00:46:22;4.17;;;2.23;;
83649;SDS011;73612;50.948;6.956;2023-11-19T00:48:49;2.83;;;2.10;;
83649;SDS011;73612;50.948;6.956;2023-11-19T00:51:15;2.60;;;1.83;;
83649;SDS011;73612;50.948;6.956;2023-11-19T00:53:42;2.77;;;2.20;;
83649;SDS011;73612;50.948;6.956;2023-11-19T00:56:10;2.63;;;2.00;;
83649;SDS011;73612;50.948;6.956;2023-11-19T00:58:35;2.40;;;2.20;;
83649;SDS011;73612;50.948;6.956;2023-11-19T01:01:02;4.97;;;1.90;;
83649;SDS011;73612;50.948;6.956;2023-11-19T01:03:28;4.20;;;1.87;;
83649;SDS011;73612;50.948;6.956;2023-11-19T01:05:55;3.43;;;2.00;;
83649;SDS011;73612;50.948;6.956;2023-11-19T01:08:22;2.10;;;1.80;;
83649;SDS011;73612;50.948;6.956;2023-11-19T01:10:48;2.83;;;2.17;;
83649;SDS011;73612;50.948;6.956;2023-11-19T01:13:15;2.50;;;1.87;;
83649;SDS011;73612;50.948;6.956;2023-11-19T01:15:44;3.40;;;2.00;;
83649;SDS011;73612;50.948;6.956;2023-11-19T01:30:08;39.50;;;23.43;;
83649;SDS011;73612;50.948;6.956;2023-11-19T01:32:37;5.83;;;4.80;;
83649;SDS011;73612;50.948;6.956;2023-11-19T01:35:04;13.13;;;9.20;;
83649;SDS011;73612;50.948;6.956;2023-11-19T01:37:31;11.87;;;8.30;;
83649;SDS011;73612;50.948;6.956;2023-11-19T01:39:58;6.47;;;4.90;;
83649;SDS011;73612;50.948;6.956;2023-11-19T01:45:21;9.43;;;7.13;;
83649;SDS011;73612;50.948;6.956;2023-11-19T01:47:48;8.03;;;5.90;;
83649;SDS011;73612;50.948;6.956;2023-11-19T01:50:15;35.07;;;21.80;;
83649;SDS011;73612;50.948;6.956;2023-11-19T01:52:42;73.20;;;39.63;;
83649;SDS011;73612;50.948;6.956;2023-11-19T01:55:09;90.43;;;52.00;;
83649;SDS011;73612;50.948;6.956;2023-11-19T01:57:35;27.30;;;16.47;;
83649;SDS011;73612;50.948;6.956;2023-11-19T02:00:02;49.30;;;30.43;;
83649;SDS011;73612;50.948;6.956;2023-11-19T02:02:29;25.13;;;14.90;;
83649;SDS011;73612;50.948;6.956;2023-11-19T02:04:56;19.43;;;11.80;;
83649;SDS011;73612;50.948;6.956;2023-11-19T02:07:23;57.13;;;33.53;;
83649;SDS011;73612;50.948;6.956;2023-11-19T02:09:50;10.73;;;6.23;;
83649;SDS011;73612;50.948;6.956;2023-11-19T02:12:16;14.37;;;9.27;;
83649;SDS011;73612;50.948;6.956;2023-11-19T02:14:43;11.83;;;6.60;;
83649;SDS011;73612;50.948;6.956;2023-11-19T02:17:24;12.90;;;6.97;;
83649;SDS011;73612;50.948;6.956;2023-11-19T02:19:51;12.60;;;5.40;;
83649;SDS011;73612;50.948;6.956;2023-11-19T02:22:17;30.40;;;17.93;;
83649;SDS011;73612;50.948;6.956;2023-11-19T02:24:44;18.80;;;10.60;;
83649;SDS011;73612;50.948;6.956;2023-11-19T02:27:15;19.57;;;9.33;;
83649;SDS011;73612;50.948;6.956;2023-11-19T02:29:37;12.13;;;7.07;;
83649;SDS011;73612;50.948;6.956;2023-11-19T02:32:04;26.67;;;12.80;;
83649;SDS011;73612;50.948;6.956;2023-11-19T02:34:31;22.20;;;14.77;;
83649;SDS011;73612;50.948;6.956;2023-11-19T02:36:57;22.37;;;13.00;;
83649;SDS011;73612;50.948;6.956;2023-11-19T02:39:24;41.07;;;23.10;;
83649;SDS011;73612;50.948;6.956;2023-11-19T02:41:51;49.90;;;28.03;;
83649;SDS011;73612;50.948;6.956;2023-11-19T02:44:17;19.93;;;8.20;;
83649;SDS011;73612;50.948;6.956;2023-11-19T02:46:48;19.97;;;8.70;;
83649;SDS011;73612;50.948;6.956;2023-11-19T02:49:24;11.87;;;4.87;;
83649;SDS011;73612;50.948;6.956;2023-11-19T02:52:12;11.67;;;5.70;;
83649;SDS011;73612;50.948;6.956;2023-11-19T02:54:52;18.57;;;9.97;;
83649;SDS011;73612;50.948;6.956;2023-11-19T02:57:37;15.73;;;8.40;;
83649;SDS011;73612;50.948;6.956;2023-11-19T03:08:40;20.20;;;8.83;;
83649;SDS011;73612;50.948;6.956;2023-11-19T03:11:18;12.80;;;4.73;;
83649;SDS011;73612;50.948;6.956;2023-11-19T03:14:22;79.43;;;46.50;;
83649;SDS011;73612;50.948;6.956;2023-11-19T03:16:54;24.13;;;12.57;;
83649;SDS011;73612;50.948;6.956;2023-11-19T03:19:27;78.27;;;36.33;;
83649;SDS011;73612;50.948;6.956;2023-11-19T03:27:13;24.83;;;12.63;;
83649;SDS011;73612;50.948;6.956;2023-11-19T03:29:48;21.10;;;8.00;;
83649;SDS011;73612;50.948;6.956;2023-11-19T03:32:14;15.07;;;5.17;;
83649;SDS011;73612;50.948;6.956;2023-11-19T03:34:43;10.93;;;3.07;;
83649;SDS011;73612;50.948;6.956;2023-11-19T03:37:13;12.43;;;3.50;;
83649;SDS011;73612;50.948;6.956;2023-11-19T03:39:54;13.80;;;4.20;;
83649;SDS011;73612;50.948;6.956;2023-11-19T03:42:21;19.40;;;8.43;;
83649;SDS011;73612;50.948;6.956;2023-11-19T03:44:51;24.80;;;8.33;;
83649;SDS011;73612;50.948;6.956;2023-11-19T03:47:18;8.80;;;3.00;;
83649;SDS011;73612;50.948;6.956;2023-11-19T03:49:48;10.27;;;3.93;;
83649;SDS011;73612;50.948;6.956;2023-11-19T03:54:59;15.10;;;4.50;;
83649;SDS011;73612;50.948;6.956;2023-11-19T03:57:27;36.23;;;14.60;;
83649;SDS011;73612;50.948;6.956;2023-11-19T04:00:05;47.63;;;21.50;;
83649;SDS011;73612;50.948;6.956;2023-11-19T04:02:37;17.47;;;6.10;;
83649;SDS011;73612;50.948;6.956;2023-11-19T04:05:16;20.97;;;8.10;;
83649;SDS011;73612;50.948;6.956;2023-11-19T04:07:46;26.30;;;9.07;;
83649;SDS011;73612;50.948;6.956;2023-11-19T04:10:13;26.83;;;11.20;;
83649;SDS011;73612;50.948;6.956;2023-11-19T04:12:42;62.37;;;29.40;;
83649;SDS011;73612;50.948;6.956;2023-11-19T04:15:09;79.63;;;43.57;;
83649;SDS011;73612;50.948;6.956;2023-11-19T04:17:36;94.20;;;50.30;;
83649;SDS011;73612;50.948;6.956;2023-11-19T04:20:05;156.13;;;76.63;;
83649;SDS011;73612;50.948;6.956;2023-11-19T04:22:33;32.73;;;14.77;;
83649;SDS011;73612;50.948;6.956;2023-11-19T04:25:00;15.90;;;5.77;;
83649;SDS011;73612;50.948;6.956;2023-11-19T04:27:30;29.30;;;12.90;;
83649;SDS011;73612;50.948;6.956;2023-11-19T04:32:40;34.27;;;17.67;;
83649;SDS011;73612;50.948;6.956;2023-11-19T04:35:09;12.77;;;4.73;;
83649;SDS011;73612;50.948;6.956;2023-11-19T04:37:36;43.67;;;25.47;;
83649;SDS011;73612;50.948;6.956;2023-11-19T04:40:04;52.63;;;30.63;;
83649;SDS011;73612;50.948;6.956;2023-11-19T04:42:31;27.97;;;10.07;;
83649;SDS011;73612;50.948;6.956;2023-11-19T04:45:02;21.33;;;8.30;;
83649;SDS011;73612;50.948;6.956;2023-11-19T04:47:37;25.97;;;6.67;;
83649;SDS011;73612;50.948;6.956;2023-11-19T04:50:06;25.97;;;10.57;;
83649;SDS011;73612;50.948;6.956;2023-11-19T04:52:42;18.37;;;4.20;;
83649;SDS011;73612;50.948;6.956;2023-11-19T04:55:09;14.53;;;4.67;;
83649;SDS011;73612;50.948;6.956;2023-11-19T04:57:38;14.40;;;3.47;;
83649;SDS011;73612;50.948;6.956;2023-11-19T05:00:24;20.57;;;4.23;;
83649;SDS011;73612;50.948;6.956;2023-11-19T05:02:53;16.77;;;3.53;;
83649;SDS011;73612;50.948;6.956;2023-11-19T05:05:26;21.57;;;4.50;;
83649;SDS011;73612;50.948;6.956;2023-11-19T05:07:58;20.77;;;4.10;;
83649;SDS011;73612;50.948;6.956;2023-11-19T05:10:34;16.90;;;4.10;;
83649;SDS011;73612;50.948;6.956;2023-11-19T05:13:01;16.03;;;4.20;;
83649;SDS011;73612;50.948;6.956;2023-11-19T05:15:35;12.43;;;4.10;;
83649;SDS011;73612;50.948;6.956;2023-11-19T05:18:08;15.93;;;4.57;;
83649;SDS011;73612;50.948;6.956;2023-11-19T05:20:38;20.13;;;4.77;;
83649;SDS011;73612;50.948;6.956;2023-11-19T05:23:10;20.10;;;3.57;;
83649;SDS011;73612;50.948;6.956;2023-11-19T05:25:46;15.57;;;4.00;;
83649;SDS011;73612;50.948;6.956;2023-11-19T05:28:15;14.37;;;3.50;;
83649;SDS011;73612;50.948;6.956;2023-11-19T05:30:51;17.13;;;4.00;;
83649;SDS011;73612;50.948;6.956;2023-11-19T05:33:19;19.23;;;3.90;;
83649;SDS011;73612;50.948;6.956;2023-11-19T05:36:00;17.50;;;4.07;;
83649;SDS011;73612;50.948;6.956;2023-11-19T05:38:30;16.47;;;3.33;;
83649;SDS011;73612;50.948;6.956;2023-11-19T05:41:03;13.33;;;3.50;;
83649;SDS011;73612;50.948;6.956;2023-11-19T05:43:51;16.90;;;3.40;;
83649;SDS011;73612;50.948;6.956;2023-11-19T05:46:20;21.13;;;4.27;;
83649;SDS011;73612;50.948;6.956;2023-11-19T05:48:48;20.80;;;3.63;;
83649;SDS011;73612;50.948;6.956;2023-11-19T05:51:20;18.90;;;3.83;;
83649;SDS011;73612;50.948;6.956;2023-11-19T05:53:55;13.70;;;3.60;;
83649;SDS011;73612;50.948;6.956;2023-11-19T05:56:22;16.57;;;3.60;;
83649;SDS011;73612;50.948;6.956;2023-11-19T05:58:58;26.07;;;4.40;;
83649;SDS011;73612;50.948;6.956;2023-11-19T06:01:29;22.83;;;3.93;;
83649;SDS011;73612;50.948;6.956;2023-11-19T06:03:57;17.97;;;4.53;;
83649;SDS011;73612;50.948;6.956;2023-11-19T06:09:08;18.13;;;3.87;;
83649;SDS011;73612;50.948;6.956;2023-11-19T06:11:44;19.57;;;5.43;;
83649;SDS011;73612;50.948;6.956;2023-11-19T06:14:14;19.10;;;4.03;;
83649;SDS011;73612;50.948;6.956;2023-11-19T06:16:46;17.37;;;4.00;;
83649;SDS011;73612;50.948;6.956;2023-11-19T06:19:13;22.27;;;4.20;;
83649;SDS011;73612;50.948;6.956;2023-11-19T06:21:48;23.37;;;4.23;;
83649;SDS011;73612;50.948;6.956;2023-11-19T06:24:18;20.53;;;4.33;;
83649;SDS011;73612;50.948;6.956;2023-11-19T06:32:20;22.43;;;4.47;;
83649;SDS011;73612;50.948;6.956;2023-11-19T06:35:02;20.73;;;4.43;;
83649;SDS011;73612;50.948;6.956;2023-11-19T06:37:31;18.43;;;3.70;;
83649;SDS011;73612;50.948;6.956;2023-11-19T06:40:08;20.20;;;3.83;;
83649;SDS011;73612;50.948;6.956;2023-11-19T06:42:43;24.47;;;4.83;;
83649;SDS011;73612;50.948;6.956;2023-11-19T06:45:27;18.63;;;4.60;;
83649;SDS011;73612;50.948;6.956;2023-11-19T06:47:57;17.10;;;4.67;;
83649;SDS011;73612;50.948;6.956;2023-11-19T06:50:37;22.33;;;5.23;;
83649;SDS011;73612;50.948;6.956;2023-11-19T06:53:14;18.63;;;4.17;;
83649;SDS011;73612;50.948;6.956;2023-11-19T06:55:59;24.50;;;4.70;;
83649;SDS011;73612;50.948;6.956;2023-11-19T06:58:42;22.97;;;4.07;;
83649;SDS011;73612;50.948;6.956;2023-11-19T07:01:21;22.27;;;3.93;;
83649;SDS011;73612;50.948;6.956;2023-11-19T07:03:55;20.03;;;4.90;;
83649;SDS011;73612;50.948;6.956;2023-11-19T07:09:44;17.27;;;4.30;;
83649;SDS011;73612;50.948;6.956;2023-11-19T07:12:17;22.17;;;5.30;;
83649;SDS011;73612;50.948;6.956;2023-11-19T07:14:51;27.90;;;5.63;;
83649;SDS011;73612;50.948;6.956;2023-11-19T07:17:22;19.33;;;4.80;;
83649;SDS011;73612;50.948;6.956;2023-11-19T07:19:57;23.93;;;4.57;;
83649;SDS011;73612;50.948;6.956;2023-11-19T07:22:27;21.60;;;4.30;;
83649;SDS011;73612;50.948;6.956;2023-11-19T07:24:55;24.73;;;6.20;;
83649;SDS011;73612;50.948;6.956;2023-11-19T07:27:21;20.67;;;4.63;;
83649;SDS011;73612;50.948;6.956;2023-11-19T07:29:48;22.20;;;4.90;;
83649;SDS011;73612;50.948;6.956;2023-11-19T07:32:15;24.47;;;4.97;;
83649;SDS011;73612;50.948;6.956;2023-11-19T07:34:42;27.80;;;5.03;;
83649;SDS011;73612;50.948;6.956;2023-11-19T07:37:08;18.70;;;4.47;;
83649;SDS011;73612;50.948;6.956;2023-11-19T07:39:35;22.00;;;4.20;;
83649;SDS011;73612;50.948;6.956;2023-11-19T07:42:02;17.53;;;4.03;;
83649;SDS011;73612;50.948;6.956;2023-11-19T07:44:28;24.77;;;4.33;;
83649;SDS011;73612;50.948;6.956;2023-11-19T07:46:55;17.43;;;3.77;;
83649;SDS011;73612;50.948;6.956;2023-11-19T07:49:22;21.20;;;4.53;;
83649;SDS011;73612;50.948;6.956;2023-11-19T07:51:48;22.97;;;4.07;;
83649;SDS011;73612;50.948;6.956;2023-11-19T07:54:15;24.93;;;4.47;;
83649;SDS011;73612;50.948;6.956;2023-11-19T07:56:41;27.30;;;5.57;;
83649;SDS011;73612;50.948;6.956;2023-11-19T07:59:08;27.73;;;5.40;;
83649;SDS011;73612;50.948;6.956;2023-11-19T08:01:34;21.67;;;4.43;;
83649;SDS011;73612;50.948;6.956;2023-11-19T08:04:01;19.40;;;3.93;;
83649;SDS011;73612;50.948;6.956;2023-11-19T08:06:28;21.83;;;4.23;;
83649;SDS011;73612;50.948;6.956;2023-11-19T08:08:54;18.63;;;5.07;;
83649;SDS011;73612;50.948;6.956;2023-11-19T08:11:21;26.03;;;5.47;;
83649;SDS011;73612;50.948;6.956;2023-11-19T08:13:47;17.13;;;4.67;;
83649;SDS011;73612;50.948;6.956;2023-11-19T08:16:14;26.60;;;5.43;;
83649;SDS011;73612;50.948;6.956;2023-11-19T08:18:42;25.97;;;4.97;;
83649;SDS011;73612;50.948;6.956;2023-11-19T08:21:09;20.93;;;5.13;;
83649;SDS011;73612;50.948;6.956;2023-11-19T08:23:36;19.80;;;5.43;;
83649;SDS011;73612;50.948;6.956;2023-11-19T08:26:02;26.17;;;4.47;;
83649;SDS011;73612;50.948;6.956;2023-11-19T08:28:29;18.50;;;4.30;;
83649;SDS011;73612;50.948;6.956;2023-11-19T08:30:55;28.27;;;6.07;;
83649;SDS011;73612;50.948;6.956;2023-11-19T08:33:22;23.87;;;4.20;;
83649;SDS011;73612;50.948;6.956;2023-11-19T08:35:48;20.83;;;4.83;;
83649;SDS011;73612;50.948;6.956;2023-11-19T08:38:15;18.30;;;4.57;;
83649;SDS011;73612;50.948;6.956;2023-11-19T08:40:42;22.80;;;4.93;;
83649;SDS011;73612;50.948;6.956;2023-11-19T08:43:08;18.73;;;5.13;;
83649;SDS011;73612;50.948;6.956;2023-11-19T08:45:35;19.60;;;4.70;;
83649;SDS011;73612;50.948;6.956;2023-11-19T08:48:01;20.33;;;4.17;;
83649;SDS011;73612;50.948;6.956;2023-11-19T08:50:28;23.17;;;4.70;;
83649;SDS011;73612;50.948;6.956;2023-11-19T08:52:55;19.23;;;4.70;;
83649;SDS011;73612;50.948;6.956;2023-11-19T08:55:21;20.27;;;4.27;;
83649;SDS011;73612;50.948;6.956;2023-11-19T08:57:48;23.87;;;4.43;;
83649;SDS011;73612;50.948;6.956;2023-11-19T09:00:14;22.83;;;5.43;;
83649;SDS011;73612;50.948;6.956;2023-11-19T09:02:41;26.50;;;5.40;;
83649;SDS011;73612;50.948;6.956;2023-11-19T09:05:08;14.03;;;4.17;;
83649;SDS011;73612;50.948;6.956;2023-11-19T09:07:34;17.13;;;4.23;;
83649;SDS011;73612;50.948;6.956;2023-11-19T09:10:01;22.30;;;4.70;;
83649;SDS011;73612;50.948;6.956;2023-11-19T09:12:27;18.17;;;4.27;;
83649;SDS011;73612;50.948;6.956;2023-11-19T09:14:54;18.53;;;4.63;;
83649;SDS011;73612;50.948;6.956;2023-11-19T09:17:21;26.03;;;5.60;;
83649;SDS011;73612;50.948;6.956;2023-11-19T09:19:47;20.00;;;4.60;;
83649;SDS011;73612;50.948;6.956;2023-11-19T09:22:14;20.67;;;6.33;;
83649;SDS011;73612;50.948;6.956;2023-11-19T09:24:40;17.23;;;3.60;;
83649;SDS011;73612;50.948;6.956;2023-11-19T09:27:07;15.43;;;4.10;;
83649;SDS011;73612;50.948;6.956;2023-11-19T09:29:34;17.47;;;4.80;;
83649;SDS011;73612;50.948;6.956;2023-11-19T09:32:00;21.83;;;4.23;;
83649;SDS011;73612;50.948;6.956;2023-11-19T09:34:27;20.33;;;4.27;;
83649;SDS011;73612;50.948;6.956;2023-11-19T09:36:53;21.03;;;4.63;;
83649;SDS011;73612;50.948;6.956;2023-11-19T09:39:20;18.47;;;4.97;;
83649;SDS011;73612;50.948;6.956;2023-11-19T09:41:47;24.80;;;5.10;;
83649;SDS011;73612;50.948;6.956;2023-11-19T09:44:13;22.73;;;4.70;;
83649;SDS011;73612;50.948;6.956;2023-11-19T09:46:40;22.13;;;5.33;;
83649;SDS011;73612;50.948;6.956;2023-11-19T09:49:07;49.47;;;18.57;;
83649;SDS011;73612;50.948;6.956;2023-11-19T09:51:33;21.97;;;5.33;;
83649;SDS011;73612;50.948;6.956;2023-11-19T09:54:00;32.67;;;6.63;;
83649;SDS011;73612;50.948;6.956;2023-11-19T09:56:26;24.33;;;6.63;;
83649;SDS011;73612;50.948;6.956;2023-11-19T09:58:53;22.20;;;5.83;;
83649;SDS011;73612;50.948;6.956;2023-11-19T10:01:19;19.60;;;4.67;;
83649;SDS011;73612;50.948;6.956;2023-11-19T10:03:46;22.20;;;6.17;;
83649;SDS011;73612;50.948;6.956;2023-11-19T10:06:13;24.63;;;4.70;;
83649;SDS011;73612;50.948;6.956;2023-11-19T10:08:39;16.00;;;4.70;;
83649;SDS011;73612;50.948;6.956;2023-11-19T10:11:06;27.70;;;6.67;;
83649;SDS011;73612;50.948;6.956;2023-11-19T10:13:34;25.57;;;6.70;;
83649;SDS011;73612;50.948;6.956;2023-11-19T10:16:03;27.97;;;9.17;;
83649;SDS011;73612;50.948;6.956;2023-11-19T10:18:27;25.27;;;7.90;;
83649;SDS011;73612;50.948;6.956;2023-11-19T10:20:54;23.23;;;8.57;;
83649;SDS011;73612;50.948;6.956;2023-11-19T10:23:21;20.87;;;6.80;;
83649;SDS011;73612;50.948;6.956;2023-11-19T10:25:47;22.97;;;6.23;;
83649;SDS011;73612;50.948;6.956;2023-11-19T10:28:15;23.57;;;5.20;;
83649;SDS011;73612;50.948;6.956;2023-11-19T10:30:41;22.60;;;5.73;;
83649;SDS011;73612;50.948;6.956;2023-11-19T10:33:10;25.37;;;6.40;;
83649;SDS011;73612;50.948;6.956;2023-11-19T10:38:17;40.17;;;13.30;;
83649;SDS011;73612;50.948;6.956;2023-11-19T10:40:43;44.63;;;20.93;;
83649;SDS011;73612;50.948;6.956;2023-11-19T10:43:10;62.03;;;30.63;;
83649;SDS011;73612;50.948;6.956;2023-11-19T10:45:38;26.20;;;8.63;;
83649;SDS011;73612;50.948;6.956;2023-11-19T10:48:03;36.93;;;16.33;;
83649;SDS011;73612;50.948;6.956;2023-11-19T10:50:33;27.80;;;8.37;;
83649;SDS011;73612;50.948;6.956;2023-11-19T10:52:59;46.50;;;17.30;;
83649;SDS011;73612;50.948;6.956;2023-11-19T10:55:26;47.87;;;21.50;;
83649;SDS011;73612;50.948;6.956;2023-11-19T10:57:52;29.17;;;8.33;;
83649;SDS011;73612;50.948;6.956;2023-11-19T11:00:19;26.53;;;8.90;;
83649;SDS011;73612;50.948;6.956;2023-11-19T11:02:46;47.23;;;21.87;;
83649;SDS011;73612;50.948;6.956;2023-11-19T11:05:12;27.43;;;9.93;;
83649;SDS011;73612;50.948;6.956;2023-11-19T11:07:39;17.47;;;4.60;;
83649;SDS011;73612;50.948;6.956;2023-11-19T11:10:06;16.50;;;4.40;;
83649;SDS011;73612;50.948;6.956;2023-11-19T11:12:34;17.10;;;4.10;;
83649;SDS011;73612;50.948;6.956;2023-11-19T11:15:00;23.83;;;5.70;;
83649;SDS011;73612;50.948;6.956;2023-11-19T11:17:26;43.10;;;14.67;;
83649;SDS011;73612;50.948;6.956;2023-11-19T11:19:54;29.70;;;11.67;;
83649;SDS011;73612;50.948;6.956;2023-11-19T11:22:20;18.13;;;5.07;;
83649;SDS011;73612;50.948;6.956;2023-11-19T11:24:52;48.03;;;19.37;;
83649;SDS011;73612;50.948;6.956;2023-11-19T11:27:28;30.97;;;12.53;;
83649;SDS011;73612;50.948;6.956;2023-11-19T11:29:56;27.90;;;6.37;;
83649;SDS011;73612;50.948;6.956;2023-11-19T11:33:32;23.17;;;7.60;;
83649;SDS011;73612;50.948;6.956;2023-11-19T11:35:15;21.80;;;7.83;;
83649;SDS011;73612;50.948;6.956;2023-11-19T11:37:44;32.03;;;13.37;;
83649;SDS011;73612;50.948;6.956;2023-11-19T11:40:15;32.30;;;12.90;;
83649;SDS011;73612;50.948;6.956;2023-11-19T11:42:41;22.30;;;7.70;;
83649;SDS011;73612;50.948;6.956;2023-11-19T11:45:10;29.73;;;12.50;;
83649;SDS011;73612;50.948;6.956;2023-11-19T11:50:26;18.23;;;4.63;;
83649;SDS011;73612;50.948;6.956;2023-11-19T11:55:55;86.07;;;44.07;;
83649;SDS011;73612;50.948;6.956;2023-11-19T11:58:25;99.37;;;49.23;;
83649;SDS011;73612;50.948;6.956;2023-11-19T12:00:48;103.27;;;50.07;;
83649;SDS011;73612;50.948;6.956;2023-11-19T12:03:15;63.23;;;32.00;;
83649;SDS011;73612;50.948;6.956;2023-11-19T12:05:44;30.03;;;12.73;;
83649;SDS011;73612;50.948;6.956;2023-11-19T12:08:10;18.77;;;8.87;;
83649;SDS011;73612;50.948;6.956;2023-11-19T12:10:37;13.90;;;5.40;;
83649;SDS011;73612;50.948;6.956;2023-11-19T12:13:04;16.20;;;5.20;;
83649;SDS011;73612;50.948;6.956;2023-11-19T12:15:29;12.60;;;5.13;;
83649;SDS011;73612;50.948;6.956;2023-11-19T12:17:56;30.73;;;14.33;;
83649;SDS011;73612;50.948;6.956;2023-11-19T12:20:24;48.33;;;21.47;;
83649;SDS011;73612;50.948;6.956;2023-11-19T12:22:49;42.17;;;21.73;;
83649;SDS011;73612;50.948;6.956;2023-11-19T12:25:16;31.43;;;15.57;;
83649;SDS011;73612;50.948;6.956;2023-11-19T12:27:43;20.27;;;6.40;;
83649;SDS011;73612;50.948;6.956;2023-11-19T12:30:10;29.80;;;13.57;;
83649;SDS011;73612;50.948;6.956;2023-11-19T12:32:38;29.67;;;12.40;;
83649;SDS011;73612;50.948;6.956;2023-11-19T12:35:05;25.33;;;8.27;;
83649;SDS011;73612;50.948;6.956;2023-11-19T12:37:31;19.83;;;6.67;;
83649;SDS011;73612;50.948;6.956;2023-11-19T12:39:58;19.13;;;5.33;;
83649;SDS011;73612;50.948;6.956;2023-11-19T12:45:04;24.27;;;7.50;;
83649;SDS011;73612;50.948;6.956;2023-11-19T12:47:31;49.23;;;23.80;;
83649;SDS011;73612;50.948;6.956;2023-11-19T12:49:57;33.90;;;15.80;;
83649;SDS011;73612;50.948;6.956;2023-11-19T12:52:24;23.77;;;8.17;;
83649;SDS011;73612;50.948;6.956;2023-11-19T12:54:51;20.27;;;9.23;;
83649;SDS011;73612;50.948;6.956;2023-11-19T12:57:17;35.30;;;16.17;;
83649;SDS011;73612;50.948;6.956;2023-11-19T13:02:20;29.10;;;13.40;;
83649;SDS011;73612;50.948;6.956;2023-11-19T13:04:47;24.40;;;11.83;;
83649;SDS011;73612;50.948;6.956;2023-11-19T13:07:20;21.67;;;8.30;;
83649;SDS011;73612;50.948;6.956;2023-11-19T13:10:02;49.20;;;22.53;;
83649;SDS011;73612;50.948;6.956;2023-11-19T13:17:49;28.30;;;13.40;;
83649;SDS011;73612;50.948;6.956;2023-11-19T13:20:16;28.70;;;12.67;;
83649;SDS011;73612;50.948;6.956;2023-11-19T13:36:24;15.60;;;5.73;;
83649;SDS011;73612;50.948;6.956;2023-11-19T13:38:50;44.30;;;22.80;;
83649;SDS011;73612;50.948;6.956;2023-11-19T13:41:17;82.67;;;43.97;;
83649;SDS011;73612;50.948;6.956;2023-11-19T13:43:43;53.00;;;25.47;;
83649;SDS011;73612;50.948;6.956;2023-11-19T13:48:44;106.47;;;50.90;;
83649;SDS011;73612;50.948;6.956;2023-11-19T13:51:17;37.70;;;13.20;;
83649;SDS011;73612;50.948;6.956;2023-11-19T14:02:18;47.03;;;20.97;;
83649;SDS011;73612;50.948;6.956;2023-11-19T14:04:45;46.27;;;23.57;;
83649;SDS011;73612;50.948;6.956;2023-11-19T14:07:11;106.37;;;51.10;;
83649;SDS011;73612;50.948;6.956;2023-11-19T14:09:38;58.43;;;27.97;;
83649;SDS011;73612;50.948;6.956;2023-11-19T14:12:04;49.30;;;21.00;;
83649;SDS011;73612;50.948;6.956;2023-11-19T14:14:31;29.47;;;11.43;;
83649;SDS011;73612;50.948;6.956;2023-11-19T14:16:57;41.50;;;19.67;;
83649;SDS011;73612;50.948;6.956;2023-11-19T14:19:24;63.47;;;31.97;;
83649;SDS011;73612;50.948;6.956;2023-11-19T14:21:51;61.23;;;28.93;;
83649;SDS011;73612;50.948;6.956;2023-11-19T14:24:17;194.73;;;92.13;;
83649;SDS011;73612;50.948;6.956;2023-11-19T14:26:45;86.13;;;44.07;;
83649;SDS011;73612;50.948;6.956;2023-11-19T14:29:10;168.00;;;91.00;;
83649;SDS011;73612;50.948;6.956;2023-11-19T14:31:37;76.37;;;36.37;;
83649;SDS011;73612;50.948;6.956;2023-11-19T14:34:04;48.40;;;23.77;;
83649;SDS011;73612;50.948;6.956;2023-11-19T14:36:32;78.50;;;40.80;;
83649;SDS011;73612;50.948;6.956;2023-11-19T14:38:59;50.30;;;23.83;;
83649;SDS011;73612;50.948;6.956;2023-11-19T14:41:25;89.93;;;42.73;;
83649;SDS011;73612;50.948;6.956;2023-11-19T14:43:52;96.70;;;44.47;;
83649;SDS011;73612;50.948;6.956;2023-11-19T14:46:18;144.77;;;69.03;;
83649;SDS011;73612;50.948;6.956;2023-11-19T14:48:45;100.57;;;45.43;;
83649;SDS011;73612;50.948;6.956;2023-11-19T14:51:12;152.67;;;72.67;;
83649;SDS011;73612;50.948;6.956;2023-11-19T14:53:38;48.97;;;21.40;;
83649;SDS011;73612;50.948;6.956;2023-11-19T14:56:05;57.83;;;27.37;;
83649;SDS011;73612;50.948;6.956;2023-11-19T14:58:32;22.87;;;9.97;;
83649;SDS011;73612;50.948;6.956;2023-11-19T15:00:58;50.17;;;23.50;;
83649;SDS011;73612;50.948;6.956;2023-11-19T15:03:25;124.97;;;57.80;;
83649;SDS011;73612;50.948;6.956;2023-11-19T15:05:53;52.60;;;26.57;;
83649;SDS011;73612;50.948;6.956;2023-11-19T15:08:19;72.03;;;34.70;;
83649;SDS011;73612;50.948;6.956;2023-11-19T15:10:46;92.80;;;44.53;;
83649;SDS011;73612;50.948;6.956;2023-11-19T15:13:13;106.33;;;52.87;;
83649;SDS011;73612;50.948;6.956;2023-11-19T15:15:39;119.50;;;56.10;;
83649;SDS011;73612;50.948;6.956;2023-11-19T15:18:06;137.97;;;62.30;;
83649;SDS011;73612;50.948;6.956;2023-11-19T15:20:32;104.80;;;47.00;;
83649;SDS011;73612;50.948;6.956;2023-11-19T15:22:59;96.33;;;43.03;;
83649;SDS011;73612;50.948;6.956;2023-11-19T15:25:26;61.17;;;30.60;;
83649;SDS011;73612;50.948;6.956;2023-11-19T15:27:52;91.97;;;42.50;;
83649;SDS011;73612;50.948;6.956;2023-11-19T15:30:19;144.70;;;63.93;;
83649;SDS011;73612;50.948;6.956;2023-11-19T15:32:45;202.03;;;92.83;;
83649;SDS011;73612;50.948;6.956;2023-11-19T15:35:12;197.20;;;86.97;;
83649;SDS011;73612;50.948;6.956;2023-11-19T15:37:39;52.83;;;23.97;;
83649;SDS011;73612;50.948;6.956;2023-11-19T15:40:06;88.03;;;42.53;;
83649;SDS011;73612;50.948;6.956;2023-11-19T15:42:34;150.37;;;76.10;;
83649;SDS011;73612;50.948;6.956;2023-11-19T15:45:01;149.87;;;68.83;;
83649;SDS011;73612;50.948;6.956;2023-11-19T15:47:27;105.23;;;50.80;;
83649;SDS011;73612;50.948;6.956;2023-11-19T15:49:54;118.90;;;56.77;;
83649;SDS011;73612;50.948;6.956;2023-11-19T15:52:21;92.27;;;43.63;;
83649;SDS011;73612;50.948;6.956;2023-11-19T15:54:48;352.97;;;177.53;;
83649;SDS011;73612;50.948;6.956;2023-11-19T15:57:14;179.40;;;83.60;;
83649;SDS011;73612;50.948;6.956;2023-11-19T15:59:42;176.87;;;89.23;;
83649;SDS011;73612;50.948;6.956;2023-11-19T16:02:08;77.17;;;34.60;;
83649;SDS011;73612;50.948;6.956;2023-11-19T16:04:35;77.43;;;33.47;;
83649;SDS011;73612;50.948;6.956;2023-11-19T16:07:01;118.47;;;57.17;;
83649;SDS011;73612;50.948;6.956;2023-11-19T16:09:28;146.87;;;60.20;;